Adams Landing, Vermont
Current Conditions -  °F | °C
As of 4:53 PM on Monday 24 Nov 2014 (Local Time) from KPBG Reporting Station
Scattered Clouds Scattered Clouds  
Wind Chill: 63°   Ceiling: Unl
Heat Index: 63°   Visibility: 10mi
Dew Point: 55°   Wind: 14mph
Humidity: 75%   Direction: 160°SSE
Pressure: 29.33"   Gusts: NA
Location:  44.717°N, 73.3067°W
Report Text: KPBG 242153Z AUTO 16012KT 10SM FEW070 SCT080 17/13 A2933 RMK AO2 SLP932 T01720128
Loading
Personal Weather Stations






























Interactive Weather Map New forecast layout! Learn more

10-Day Weather Forecast

Advertisements
Track Severe Weather on mobile